Time;durP1;ratioP1;P1;durP2;ratioP2;P2;SDS_P1;SDS_P2;PMS_P1;PMS_P2;Temp;Humidity;BMP_temperature;BMP_pressure;BME280_temperature;BME280_humidity;BME280_pressure;Samples;Min_cycle;Max_cycle;Signal;HPM_P1;HPM_P2
2022/06/01 00:01:33;;;;;;;5.00;3.03;;;15.60;68.50;;;;;;4880046;29;20484;-72
2022/06/01 00:04:01;;;;;;;4.83;2.77;;;15.60;68.40;;;;;;4874069;29;20466;-72
2022/06/01 00:06:29;;;;;;;5.67;3.07;;;15.50;68.40;;;;;;4883356;29;21217;-72
2022/06/01 00:08:58;;;;;;;5.97;3.00;;;15.40;68.30;;;;;;4878851;29;20485;-72
2022/06/01 00:11:27;;;;;;;5.77;2.70;;;15.30;68.50;;;;;;4877083;29;20483;-72
2022/06/01 00:13:55;;;;;;;6.20;3.13;;;15.30;68.70;;;;;;4876948;29;20529;-72
2022/06/01 00:16:24;;;;;;;5.10;2.80;;;15.20;68.80;;;;;;4883398;29;21040;-72
2022/06/01 00:18:53;;;;;;;6.20;2.83;;;15.20;68.90;;;;;;4884826;29;20982;-72
2022/06/01 00:21:21;;;;;;;7.33;2.80;;;15.20;68.80;;;;;;4875604;29;20458;-73
2022/06/01 00:23:49;;;;;;;5.13;2.87;;;15.20;68.80;;;;;;4887154;29;22133;-72
2022/06/01 00:26:17;;;;;;;7.27;3.13;;;15.10;68.70;;;;;;4888934;29;20863;-73
2022/06/01 00:28:47;;;;;;;5.27;3.00;;;15.00;68.80;;;;;;4868348;29;20466;-72
2022/06/01 00:31:15;;;;;;;5.40;3.00;;;15.00;68.90;;;;;;4887609;29;21186;-72
2022/06/01 00:33:43;;;;;;;5.27;2.77;;;15.00;68.90;;;;;;4887079;29;20559;-73
2022/06/01 00:36:11;;;;;;;5.27;3.00;;;15.00;68.80;;;;;;4887364;29;20513;-72
2022/06/01 00:38:39;;;;;;;5.43;3.00;;;14.90;68.60;;;;;;4885368;29;20474;-72
2022/06/01 00:41:07;;;;;;;6.77;2.70;;;14.80;68.80;;;;;;4885088;29;20469;-72
2022/06/01 00:43:44;;;;;;;4.70;2.43;;;14.80;68.90;;;;;;4863465;29;20835;-73
2022/06/01 00:46:15;;;;;;;5.57;2.80;;;14.80;68.80;;;;;;4877307;29;20474;-73
2022/06/01 00:48:47;;;;;;;4.37;2.43;;;14.70;68.80;;;;;;4870406;29;20897;-72
2022/06/01 00:51:20;;;;;;;4.77;2.80;;;14.70;68.80;;;;;;4882659;29;20490;-72
2022/06/01 00:53:51;;;;;;;4.67;2.87;;;14.60;68.80;;;;;;4888747;29;20995;-72
2022/06/01 00:56:23;;;;;;;5.10;3.20;;;14.60;68.80;;;;;;4889056;29;20528;-71
2022/06/01 00:58:53;;;;;;;6.17;3.03;;;14.60;68.80;;;;;;4884505;29;20470;-72
2022/06/01 01:01:22;;;;;;;6.10;3.00;;;14.60;68.90;;;;;;4882061;29;20494;-72
2022/06/01 01:03:56;;;;;;;6.77;2.73;;;14.50;68.70;;;;;;4885973;29;20466;-72
2022/06/01 01:06:26;;;;;;;5.90;3.47;;;14.50;68.70;;;;;;4881046;29;20462;-72
2022/06/01 01:08:55;;;;;;;6.90;3.20;;;14.40;68.80;;;;;;4885123;29;20817;-72
2022/06/01 01:11:26;;;;;;;5.37;3.20;;;14.40;68.80;;;;;;4870153;29;20471;-72
2022/06/01 01:13:54;;;;;;;4.70;2.90;;;14.30;68.90;;;;;;4871185;29;20473;-72
2022/06/01 01:16:25;;;;;;;5.53;3.10;;;14.40;68.90;;;;;;4887406;29;20474;-72
2022/06/01 01:18:54;;;;;;;5.40;2.90;;;14.30;68.80;;;;;;4885470;29;21208;-72
2022/06/01 01:21:29;;;;;;;5.60;3.60;;;14.30;68.70;;;;;;4858457;29;20459;-72
2022/06/01 01:24:11;;;;;;;6.23;3.37;;;14.20;68.60;;;;;;4892274;29;20963;-73
2022/06/01 01:26:43;;;;;;;5.10;3.07;;;14.20;68.50;;;;;;4890192;29;20465;-72
2022/06/01 01:29:12;;;;;;;4.80;2.70;;;14.10;68.60;;;;;;4892449;29;20476;-72
2022/06/01 01:31:40;;;;;;;4.80;2.73;;;14.00;68.60;;;;;;4886248;29;21029;-72
2022/06/01 01:34:09;;;;;;;4.70;3.03;;;14.00;68.70;;;;;;4889228;29;20464;-72
2022/06/01 01:36:42;;;;;;;5.73;3.30;;;13.90;68.80;;;;;;4883762;29;20965;-73
2022/06/01 01:39:13;;;;;;;6.07;2.90;;;13.90;68.90;;;;;;4888786;29;20488;-71
2022/06/01 01:41:44;;;;;;;7.00;3.07;;;13.90;68.90;;;;;;4874676;29;20988;-71
2022/06/01 01:44:17;;;;;;;4.97;3.47;;;13.90;68.80;;;;;;4883703;29;20489;-74
2022/06/01 01:46:48;;;;;;;5.40;3.30;;;13.80;68.80;;;;;;4889476;29;20493;-73
2022/06/01 01:49:18;;;;;;;5.20;2.83;;;13.80;68.70;;;;;;4887302;29;20457;-73
2022/06/01 01:51:46;;;;;;;7.67;3.60;;;13.70;68.80;;;;;;4892232;29;20494;-72
2022/06/01 01:54:29;;;;;;;5.20;3.10;;;13.60;68.80;;;;;;4883949;29;21084;-73
2022/06/01 01:57:11;;;;;;;5.20;3.10;;;13.60;68.90;;;;;;4889722;29;20468;-73
2022/06/01 01:59:48;;;;;;;8.53;3.90;;;13.50;68.90;;;;;;4867880;29;21008;-73
2022/06/01 02:02:23;;;;;;;6.43;3.90;;;13.50;69.00;;;;;;4887725;29;20481;-74
2022/06/01 02:07:51;;;;;;;7.13;3.30;;;13.50;69.00;;;;;;4887650;29;20467;-74
2022/06/01 02:13:06;;;;;;;5.30;2.90;;;13.40;69.00;;;;;;4878527;29;20987;-72
2022/06/01 02:15:37;;;;;;;8.77;3.33;;;13.40;69.00;;;;;;4888166;29;22380;-74
2022/06/01 02:18:11;;;;;;;10.60;3.27;;;13.30;68.90;;;;;;4882711;29;20838;-73
2022/06/01 02:20:44;;;;;;;6.30;3.03;;;13.20;69.10;;;;;;4886528;29;20539;-73
2022/06/01 02:23:15;;;;;;;6.57;3.50;;;13.20;69.10;;;;;;4892583;29;20458;-74
2022/06/01 02:25:47;;;;;;;5.77;3.60;;;13.10;69.20;;;;;;4885655;29;20513;-73
2022/06/01 02:28:17;;;;;;;6.50;4.00;;;13.10;69.40;;;;;;4889349;29;20467;-74
2022/06/01 02:30:47;;;;;;;5.17;3.10;;;13.20;69.50;;;;;;4882678;29;21072;-73
2022/06/01 02:33:18;;;;;;;6.17;2.70;;;13.20;69.50;;;;;;4864871;29;20487;-73
2022/06/01 02:35:50;;;;;;;5.87;3.40;;;13.20;69.50;;;;;;4887298;29;20478;-74
2022/06/01 02:38:22;;;;;;;5.83;3.17;;;13.20;69.40;;;;;;4894030;29;20473;-73
2022/06/01 02:40:50;;;;;;;6.30;3.13;;;13.10;69.30;;;;;;4865260;29;20459;-73
2022/06/01 02:43:19;;;;;;;6.13;2.97;;;13.10;69.40;;;;;;4879507;29;20474;-73
2022/06/01 02:45:47;;;;;;;5.33;2.87;;;13.10;69.40;;;;;;4881335;29;20492;-73
2022/06/01 02:48:15;;;;;;;5.00;3.10;;;13.10;69.40;;;;;;4880999;29;20477;-73
2022/06/01 02:50:43;;;;;;;6.20;2.53;;;13.00;69.40;;;;;;4875055;29;20970;-73
2022/06/01 02:53:11;;;;;;;10.70;3.30;;;13.00;69.40;;;;;;4885962;29;20487;-73
2022/06/01 02:55:39;;;;;;;4.93;2.97;;;13.10;69.50;;;;;;4889005;29;20880;-73
2022/06/01 02:58:07;;;;;;;7.37;3.50;;;13.00;69.40;;;;;;4872236;29;20471;-73
2022/06/01 03:00:40;;;;;;;6.50;3.40;;;13.00;69.40;;;;;;4871451;29;20493;-73
2022/06/01 03:03:10;;;;;;;6.43;3.87;;;13.00;69.50;;;;;;4870576;29;20476;-73
2022/06/01 03:05:39;;;;;;;6.00;3.50;;;13.00;69.50;;;;;;4885354;29;20550;-73
2022/06/01 03:08:08;;;;;;;6.03;3.70;;;13.00;69.50;;;;;;4874743;29;20466;-73
2022/06/01 03:10:36;;;;;;;13.80;4.43;;;13.00;69.50;;;;;;4885238;29;20478;-72
2022/06/01 03:13:19;;;;;;;7.07;3.33;;;13.00;69.70;;;;;;4891903;29;20492;-72
2022/06/01 03:15:48;;;;;;;5.80;3.30;;;13.00;69.60;;;;;;4884088;29;21015;-72
2022/06/01 03:18:16;;;;;;;6.03;3.43;;;13.00;69.60;;;;;;4874570;29;20479;-71
2022/06/01 03:20:44;;;;;;;6.23;3.07;;;13.00;69.60;;;;;;4875483;29;20482;-71
2022/06/01 03:23:12;;;;;;;5.53;3.27;;;13.00;69.60;;;;;;4889719;29;20460;-71
2022/06/01 03:25:41;;;;;;;6.13;3.23;;;13.00;69.60;;;;;;4867809;29;20490;-73
2022/06/01 03:28:10;;;;;;;7.80;3.10;;;13.00;69.60;;;;;;4877612;29;20463;-71
2022/06/01 03:30:38;;;;;;;6.10;3.70;;;13.00;69.50;;;;;;4882088;29;20483;-71
2022/06/01 03:33:07;;;;;;;8.07;3.20;;;13.00;69.30;;;;;;4875580;29;20553;-72
2022/06/01 03:35:36;;;;;;;6.67;3.07;;;12.90;69.20;;;;;;4874666;29;20509;-71
2022/06/01 03:38:06;;;;;;;5.10;3.20;;;12.80;69.20;;;;;;4880610;29;20493;-72
2022/06/01 03:40:37;;;;;;;8.60;3.47;;;12.80;69.20;;;;;;4861530;29;20827;-74
2022/06/01 03:43:06;;;;;;;5.60;3.43;;;12.70;69.10;;;;;;4888615;29;20890;-72
2022/06/01 03:48:22;;;;;;;5.30;3.10;;;12.50;69.20;;;;;;4883231;29;20548;-73
2022/06/01 03:50:50;;;;;;;10.40;4.10;;;12.40;69.40;;;;;;4880201;29;20995;-72
2022/06/01 03:53:19;;;;;;;7.77;3.23;;;12.40;69.60;;;;;;4888797;29;21064;-73
2022/06/01 03:55:47;;;;;;;5.67;3.70;;;12.40;69.60;;;;;;4887724;29;20550;-72
2022/06/01 03:58:16;;;;;;;5.40;3.00;;;12.40;69.70;;;;;;4864383;29;20494;-74
2022/06/01 04:00:45;;;;;;;5.77;3.63;;;12.30;69.80;;;;;;4875792;29;20479;-74
2022/06/01 04:03:13;;;;;;;7.57;3.63;;;12.30;69.90;;;;;;4883084;29;20497;-73
2022/06/01 04:05:43;;;;;;;5.83;3.30;;;12.30;70.00;;;;;;4878476;29;20488;-74
2022/06/01 04:08:11;;;;;;;6.10;3.83;;;12.30;70.10;;;;;;4879720;29;20490;-73
2022/06/01 04:10:43;;;;;;;6.43;3.93;;;12.40;70.20;;;;;;4882488;29;20595;-73
2022/06/01 04:13:11;;;;;;;6.40;4.30;;;12.30;70.30;;;;;;4879859;29;20482;-71
2022/06/01 04:15:39;;;;;;;6.43;3.50;;;12.30;70.40;;;;;;4885045;29;20475;-74
2022/06/01 04:18:08;;;;;;;6.17;3.80;;;12.40;70.70;;;;;;4865793;29;20473;-72
2022/06/01 04:20:36;;;;;;;6.00;3.53;;;12.50;70.90;;;;;;4890253;29;20473;-72
2022/06/01 04:23:06;;;;;;;6.43;3.43;;;12.60;70.90;;;;;;4888261;29;20811;-71
2022/06/01 04:25:34;;;;;;;9.57;3.60;;;12.70;70.80;;;;;;4885246;29;20879;-72
2022/06/01 04:28:01;;;;;;;7.07;3.80;;;12.70;70.70;;;;;;4889960;29;20469;-71
2022/06/01 04:30:30;;;;;;;7.67;3.60;;;12.80;70.70;;;;;;4871615;29;20479;-73
2022/06/01 04:32:59;;;;;;;5.70;3.57;;;12.80;70.50;;;;;;4874944;29;20455;-74
2022/06/01 04:35:27;;;;;;;6.13;4.07;;;12.80;70.50;;;;;;4874265;29;20483;-75
2022/06/01 04:38:12;;;;;;;6.17;3.40;;;12.90;70.50;;;;;;4884249;29;20478;-72
2022/06/01 04:40:43;;;;;;;7.47;3.97;;;12.90;70.90;;;;;;4879023;29;20482;-71
2022/06/01 04:43:12;;;;;;;6.37;3.30;;;13.10;71.20;;;;;;4888768;29;20461;-72
2022/06/01 04:45:40;;;;;;;6.07;3.70;;;13.40;71.30;;;;;;4879150;29;21074;-73
2022/06/01 04:48:09;;;;;;;10.90;3.80;;;13.60;71.20;;;;;;4884579;29;20551;-73
2022/06/01 04:50:42;;;;;;;8.23;4.37;;;13.80;71.20;;;;;;4887928;29;20473;-72
2022/06/01 04:53:11;;;;;;;6.60;3.73;;;13.90;71.10;;;;;;4883648;29;20463;-71
2022/06/01 04:55:38;;;;;;;7.60;3.20;;;14.10;71.10;;;;;;4888870;29;20482;-74
2022/06/01 04:58:08;;;;;;;6.43;3.40;;;14.30;71.00;;;;;;4878488;29;21310;-71
2022/06/01 05:00:36;;;;;;;6.10;3.70;;;14.50;71.10;;;;;;4881842;29;20503;-72
2022/06/01 05:03:05;;;;;;;8.10;4.23;;;14.70;71.20;;;;;;4873858;29;20466;-72
2022/06/01 05:05:35;;;;;;;7.87;4.40;;;14.90;71.20;;;;;;4870775;29;20567;-72
2022/06/01 05:08:10;;;;;;;7.23;4.50;;;15.10;71.10;;;;;;4875166;29;20676;-73
2022/06/01 05:10:39;;;;;;;7.03;4.20;;;15.30;71.20;;;;;;4880185;29;20467;-73
2022/06/01 05:13:09;;;;;;;7.23;4.07;;;15.50;71.30;;;;;;4882298;29;20463;-73
2022/06/01 05:15:47;;;;;;;7.20;3.97;;;15.70;71.10;;;;;;4883975;29;20559;-73
2022/06/01 05:18:15;;;;;;;7.40;4.17;;;15.90;71.20;;;;;;4885730;29;20463;-73
2022/06/01 05:20:43;;;;;;;6.50;3.80;;;16.10;71.20;;;;;;4860259;29;20520;-73
2022/06/01 05:23:11;;;;;;;6.30;3.97;;;16.30;71.10;;;;;;4865499;29;20493;-74
2022/06/01 05:25:42;;;;;;;8.07;4.07;;;16.50;71.30;;;;;;4870129;29;20535;-73
2022/06/01 05:28:13;;;;;;;10.00;4.53;;;16.70;71.90;;;;;;4869336;29;20994;-73
2022/06/01 05:30:41;;;;;;;9.67;3.90;;;17.00;72.80;;;;;;4871423;29;20489;-72
2022/06/01 05:33:09;;;;;;;7.43;3.73;;;17.60;73.10;;;;;;4884415;29;20466;-72
2022/06/01 05:35:37;;;;;;;8.57;3.93;;;18.30;71.90;;;;;;4874252;29;20495;-72
2022/06/01 05:38:06;;;;;;;7.00;3.77;;;19.50;70.00;;;;;;4878201;29;20473;-73
2022/06/01 05:40:34;;;;;;;6.50;3.60;;;20.60;67.80;;;;;;4879489;29;20468;-72
2022/06/01 05:43:09;;;;;;;5.97;3.50;;;21.80;66.00;;;;;;4884811;29;20474;-72
2022/06/01 05:45:39;;;;;;;7.67;4.53;;;22.80;64.20;;;;;;4878785;29;20475;-72
2022/06/01 05:48:09;;;;;;;6.13;3.80;;;23.60;62.10;;;;;;4884970;29;20890;-72
2022/06/01 05:50:37;;;;;;;6.43;3.90;;;24.00;60.30;;;;;;4888838;29;21192;-73
2022/06/01 05:53:06;;;;;;;5.73;4.00;;;24.30;60.20;;;;;;4880735;29;20561;-72
2022/06/01 05:55:36;;;;;;;6.33;3.50;;;24.70;60.00;;;;;;4881880;29;20498;-73
2022/06/01 05:58:12;;;;;;;7.33;4.63;;;25.20;59.50;;;;;;4872258;29;20478;-73
2022/06/01 06:00:42;;;;;;;6.70;4.07;;;25.70;58.70;;;;;;4876205;29;20487;-74
2022/06/01 06:03:10;;;;;;;6.97;3.73;;;26.20;57.70;;;;;;4880084;29;20460;-73
2022/06/01 06:08:24;;;;;;;6.53;3.83;;;26.80;55.70;;;;;;4874327;29;20455;-73
2022/06/01 06:10:52;;;;;;;5.50;3.30;;;26.60;55.10;;;;;;4885413;29;20471;-73
2022/06/01 06:13:20;;;;;;;7.17;4.20;;;26.10;55.20;;;;;;4883382;29;20467;-74
2022/06/01 06:15:50;;;;;;;7.60;3.77;;;25.40;55.40;;;;;;4893208;29;20480;-74
2022/06/01 06:18:18;;;;;;;6.20;4.13;;;24.80;55.30;;;;;;4885491;29;20479;-73
2022/06/01 06:20:46;;;;;;;7.10;3.47;;;24.10;55.90;;;;;;4887874;29;20463;-72
2022/06/01 06:23:14;;;;;;;6.20;3.70;;;23.50;56.40;;;;;;4888870;29;20507;-73
2022/06/01 06:25:43;;;;;;;6.20;3.83;;;22.90;56.80;;;;;;4865896;29;20484;-73
2022/06/01 06:28:11;;;;;;;6.40;3.90;;;22.30;57.30;;;;;;4891490;29;20461;-73
2022/06/01 06:30:40;;;;;;;6.73;3.60;;;21.70;57.70;;;;;;4883583;29;20478;-73
2022/06/01 06:33:10;;;;;;;5.60;3.67;;;21.00;58.20;;;;;;4894161;29;20649;-73
2022/06/01 06:35:37;;;;;;;7.10;3.83;;;20.50;58.90;;;;;;4868812;29;21163;-73
2022/06/01 06:38:06;;;;;;;5.60;3.20;;;20.00;59.40;;;;;;4883632;29;20470;-73
2022/06/01 06:40:34;;;;;;;6.43;3.33;;;19.60;60.20;;;;;;4883641;29;20466;-73
2022/06/01 06:43:02;;;;;;;6.47;3.63;;;19.20;60.90;;;;;;4886911;29;20468;-73
2022/06/01 06:45:30;;;;;;;7.10;3.20;;;18.90;61.40;;;;;;4890330;29;20497;-73
2022/06/01 06:47:57;;;;;;;6.10;3.30;;;18.60;61.80;;;;;;4893941;29;20447;-73
2022/06/01 06:50:27;;;;;;;8.60;3.50;;;18.40;62.60;;;;;;4892234;29;20464;-73
2022/06/01 06:53:16;;;;;;;7.30;3.60;;;18.30;62.70;;;;;;4885554;29;20479;-73
2022/06/01 06:55:44;;;;;;;7.07;3.27;;;18.10;63.00;;;;;;4892053;29;20549;-72
2022/06/01 06:58:12;;;;;;;9.90;3.67;;;18.10;63.30;;;;;;4871699;29;20468;-74
2022/06/01 07:00:40;;;;;;;7.30;3.13;;;18.00;63.50;;;;;;4892535;29;20911;-73
2022/06/01 07:03:08;;;;;;;6.27;2.83;;;18.00;63.60;;;;;;4890062;29;20474;-72
2022/06/01 07:08:29;;;;;;;6.53;3.40;;;17.90;63.90;;;;;;4873340;29;20468;-73
2022/06/01 07:10:58;;;;;;;6.07;2.60;;;17.80;64.10;;;;;;4891241;29;20462;-73
2022/06/01 07:13:28;;;;;;;6.83;2.90;;;17.80;64.20;;;;;;4883607;29;20545;-73
2022/06/01 07:16:07;;;;;;;5.30;3.00;;;17.80;64.30;;;;;;4894777;29;20482;-73
2022/06/01 07:18:36;;;;;;;9.03;3.40;;;17.70;64.50;;;;;;4886662;29;20535;-73
2022/06/01 07:21:06;;;;;;;5.43;2.90;;;17.70;64.40;;;;;;4877712;29;20465;-73
2022/06/01 07:23:35;;;;;;;9.63;3.00;;;17.70;64.60;;;;;;4889062;29;20463;-73
2022/06/01 07:26:03;;;;;;;4.50;2.60;;;17.70;64.60;;;;;;4888897;29;20895;-73
2022/06/01 07:28:31;;;;;;;6.63;3.33;;;17.70;64.70;;;;;;4886890;29;21040;-74
2022/06/01 07:30:59;;;;;;;8.73;3.20;;;17.70;64.80;;;;;;4888847;29;21087;-73
2022/06/01 07:33:29;;;;;;;8.50;2.90;;;17.70;64.70;;;;;;4892123;29;20475;-74
2022/06/01 07:35:58;;;;;;;5.60;3.30;;;17.70;64.70;;;;;;4890204;29;20478;-73
2022/06/01 07:44:07;;;;;;;5.50;2.80;;;17.70;64.90;;;;;;4887060;29;20465;-74
2022/06/01 07:46:36;;;;;;;5.03;2.80;;;17.80;64.90;;;;;;4875605;29;20483;-72
2022/06/01 07:49:07;;;;;;;8.97;2.47;;;17.80;65.00;;;;;;4891785;29;20963;-73
2022/06/01 07:51:55;;;;;;;6.30;2.47;;;17.90;64.80;;;;;;4887126;29;20520;-73
2022/06/01 07:54:24;;;;;;;4.80;2.33;;;17.90;64.50;;;;;;4869875;29;20482;-73
2022/06/01 07:56:52;;;;;;;5.17;2.40;;;17.90;64.10;;;;;;4887443;29;20968;-72
2022/06/01 07:59:20;;;;;;;6.33;2.37;;;17.90;64.10;;;;;;4892569;29;20462;-72
2022/06/01 08:01:48;;;;;;;4.00;1.87;;;17.90;64.10;;;;;;4885613;29;20497;-73
2022/06/01 08:04:17;;;;;;;5.00;2.23;;;18.00;64.10;;;;;;4887815;29;20477;-73
2022/06/01 08:06:45;;;;;;;5.50;2.37;;;18.00;63.90;;;;;;4889588;29;20877;-74
2022/06/01 08:09:29;;;;;;;5.27;2.20;;;18.00;63.50;;;;;;4886982;29;20455;-73
2022/06/01 08:14:43;;;;;;;5.20;2.03;;;18.10;63.60;;;;;;4888366;29;21013;-73
2022/06/01 08:17:11;;;;;;;6.40;2.30;;;18.10;63.10;;;;;;4889232;29;20501;-73
2022/06/01 08:19:39;;;;;;;5.00;2.23;;;18.10;62.80;;;;;;4888853;29;20451;-73
2022/06/01 08:22:07;;;;;;;7.43;2.40;;;18.10;63.00;;;;;;4892633;29;20454;-73
2022/06/01 08:24:37;;;;;;;5.13;2.10;;;18.10;62.70;;;;;;4874153;29;20494;-74
2022/06/01 08:27:05;;;;;;;4.80;2.40;;;18.10;62.30;;;;;;4887232;29;20470;-74
2022/06/01 08:29:35;;;;;;;7.10;2.63;;;18.10;62.50;;;;;;4890443;29;20945;-73
2022/06/01 08:32:03;;;;;;;6.30;2.27;;;18.20;62.40;;;;;;4887159;29;20486;-73
2022/06/01 08:34:31;;;;;;;5.17;2.10;;;18.20;61.50;;;;;;4891555;29;20491;-74
2022/06/01 08:36:59;;;;;;;4.97;2.00;;;18.20;62.00;;;;;;4888988;29;21042;-74
2022/06/01 08:39:27;;;;;;;5.80;2.03;;;18.20;62.10;;;;;;4885674;29;20455;-74
2022/06/01 08:41:59;;;;;;;5.73;2.10;;;18.30;62.00;;;;;;4884857;29;20965;-74
2022/06/01 08:44:30;;;;;;;4.80;2.33;;;18.30;61.90;;;;;;4885532;29;20479;-72
2022/06/01 08:47:03;;;;;;;6.80;2.60;;;18.40;61.60;;;;;;4876297;29;20550;-74
2022/06/01 08:49:34;;;;;;;5.40;2.30;;;18.40;61.60;;;;;;4887692;29;21265;-73
2022/06/01 08:52:04;;;;;;;5.20;2.00;;;18.40;61.80;;;;;;4874902;29;20454;-73
2022/06/01 08:54:32;;;;;;;4.90;2.20;;;18.50;61.70;;;;;;4871531;29;20511;-74
2022/06/01 08:57:07;;;;;;;7.33;2.27;;;18.50;61.50;;;;;;4888242;29;20491;-73
2022/06/01 08:59:43;;;;;;;5.73;2.30;;;18.60;61.10;;;;;;4890396;29;21267;-74
2022/06/01 09:02:26;;;;;;;4.17;2.13;;;18.70;61.30;;;;;;4888375;29;20562;-73
2022/06/01 09:05:00;;;;;;;4.50;2.00;;;18.80;61.40;;;;;;4891298;29;20496;-73
2022/06/01 09:07:31;;;;;;;4.30;2.07;;;18.90;61.10;;;;;;4889564;29;20455;-72
2022/06/01 09:10:35;;;;;;;5.17;2.50;;;18.90;61.00;;;;;;4863121;29;20848;-73
2022/06/01 09:13:09;;;;;;;7.87;2.70;;;18.90;61.00;;;;;;4880124;29;20471;-73
2022/06/01 09:15:45;;;;;;;4.70;2.40;;;18.90;61.10;;;;;;4890772;29;20514;-74
2022/06/01 09:18:14;;;;;;;5.33;2.27;;;19.00;61.00;;;;;;4887969;29;20510;-73
2022/06/01 09:23:27;;;;;;;5.57;2.57;;;19.10;60.90;;;;;;4887700;29;20463;-73
2022/06/01 09:25:57;;;;;;;4.67;2.13;;;19.10;60.80;;;;;;4886675;29;21068;-73
2022/06/01 09:28:29;;;;;;;4.97;2.13;;;19.10;60.90;;;;;;4884406;29;20887;-73
2022/06/01 09:30:59;;;;;;;5.43;2.23;;;19.20;60.90;;;;;;4881952;29;20543;-73
2022/06/01 09:33:29;;;;;;;6.27;2.03;;;19.10;60.70;;;;;;4890493;29;20477;-74
2022/06/01 09:36:22;;;;;;;4.77;2.23;;;19.20;60.80;;;;;;4888849;29;20557;-74
2022/06/01 09:38:52;;;;;;;4.70;2.00;;;19.30;60.90;;;;;;4889781;29;20461;-73
2022/06/01 09:41:26;;;;;;;4.83;2.03;;;19.30;60.70;;;;;;4884771;29;20481;-73
2022/06/01 09:43:58;;;;;;;5.60;2.20;;;19.30;60.40;;;;;;4884835;29;20479;-74
2022/06/01 09:46:33;;;;;;;4.90;2.17;;;19.40;60.40;;;;;;4892750;29;20530;-73
2022/06/01 09:49:03;;;;;;;5.40;2.60;;;19.40;60.60;;;;;;4885410;29;20550;-73
2022/06/01 09:51:33;;;;;;;7.53;2.23;;;19.50;60.50;;;;;;4887555;29;20469;-73
2022/06/01 09:54:13;;;;;;;5.63;2.47;;;19.50;60.60;;;;;;4885956;29;20466;-74
2022/06/01 09:56:46;;;;;;;6.60;2.50;;;19.60;60.60;;;;;;4889464;29;20513;-73
2022/06/01 10:07:48;;;;;;;5.00;2.00;;;19.70;60.40;;;;;;4890606;29;20601;-74
2022/06/01 10:10:26;;;;;;;4.30;1.90;;;19.70;60.50;;;;;;4891204;29;20459;-74
2022/06/01 10:12:58;;;;;;;9.50;2.10;;;19.80;60.40;;;;;;4890407;29;20825;-74
2022/06/01 10:15:33;;;;;;;5.93;2.43;;;19.90;60.40;;;;;;4892611;29;20511;-73
2022/06/01 10:18:12;;;;;;;5.07;2.27;;;19.90;60.40;;;;;;4881749;29;20486;-74
2022/06/01 10:20:45;;;;;;;6.17;2.20;;;19.90;60.30;;;;;;4892067;29;20523;-72
2022/06/01 10:23:17;;;;;;;5.37;2.30;;;20.00;60.20;;;;;;4875029;29;21024;-73
2022/06/01 10:25:55;;;;;;;4.37;2.10;;;20.00;60.20;;;;;;4883365;29;20479;-74
2022/06/01 10:28:27;;;;;;;5.20;2.10;;;20.10;60.20;;;;;;4880767;29;20455;-74
2022/06/01 10:31:23;;;;;;;5.10;2.20;;;20.10;59.90;;;;;;4879163;29;20479;-74
2022/06/01 10:33:58;;;;;;;5.40;2.07;;;20.10;59.60;;;;;;4891536;29;20456;-74
2022/06/01 10:36:38;;;;;;;5.10;2.10;;;20.00;59.40;;;;;;4873388;29;20498;-74
2022/06/01 10:39:11;;;;;;;8.27;2.23;;;20.00;59.30;;;;;;4886934;29;20494;-74
2022/06/01 10:41:46;;;;;;;4.47;2.27;;;20.00;59.40;;;;;;4861883;29;20822;-73
2022/06/01 10:44:18;;;;;;;7.20;1.90;;;20.00;59.50;;;;;;4878454;29;20607;-74
2022/06/01 10:46:54;;;;;;;4.80;2.10;;;20.00;59.20;;;;;;4885417;29;20481;-72
2022/06/01 10:49:32;;;;;;;7.30;2.47;;;20.10;59.20;;;;;;4889179;29;20476;-73
2022/06/01 10:52:21;;;;;;;4.90;2.20;;;20.20;59.30;;;;;;4873422;29;20496;-72
2022/06/01 10:55:01;;;;;;;6.20;2.10;;;20.30;59.40;;;;;;4883202;29;20488;-72
2022/06/01 10:57:29;;;;;;;5.40;1.97;;;20.30;59.20;;;;;;4883635;29;20487;-73
2022/06/01 10:59:57;;;;;;;5.03;1.70;;;20.40;59.10;;;;;;4890365;29;20455;-73
2022/06/01 11:02:52;;;;;;;5.90;2.23;;;20.40;58.90;;;;;;4878776;29;20499;-72
2022/06/01 11:05:28;;;;;;;5.97;1.83;;;20.40;56.90;;;;;;4867565;29;20918;-72
2022/06/01 11:08:08;;;;;;;5.90;1.83;;;20.30;58.30;;;;;;4882542;29;20469;-72
2022/06/01 11:10:58;;;;;;;4.37;1.90;;;20.20;58.10;;;;;;4869634;29;20459;-72
2022/06/01 11:13:39;;;;;;;4.17;1.73;;;20.20;58.00;;;;;;4879028;29;20474;-73
2022/06/01 11:16:22;;;;;;;4.47;1.80;;;20.20;57.80;;;;;;4877610;29;20501;-72
2022/06/01 11:19:10;;;;;;;4.13;1.60;;;20.30;57.80;;;;;;4884729;29;20459;-73
2022/06/01 11:21:45;;;;;;;4.70;1.37;;;20.40;57.60;;;;;;4887655;29;20465;-72
2022/06/01 11:24:32;;;;;;;6.40;1.57;;;20.40;57.60;;;;;;4857085;29;20474;-73
2022/06/01 11:27:22;;;;;;;3.73;1.67;;;20.50;57.50;;;;;;4879176;29;20487;-71
2022/06/01 11:30:01;;;;;;;4.60;1.83;;;20.50;57.30;;;;;;4870390;29;20464;-73
2022/06/01 11:32:38;;;;;;;5.00;1.93;;;20.40;57.40;;;;;;4887422;29;20825;-72
2022/06/01 11:35:17;;;;;;;4.83;1.80;;;20.40;57.30;;;;;;4882507;29;20481;-72
2022/06/01 11:37:53;;;;;;;9.13;1.97;;;20.30;57.30;;;;;;4886541;29;20835;-72
2022/06/01 11:40:32;;;;;;;4.63;1.67;;;20.30;57.10;;;;;;4879590;29;20535;-73
2022/06/01 11:43:07;;;;;;;5.10;1.70;;;20.40;57.50;;;;;;4875457;29;21139;-73
2022/06/01 11:45:40;;;;;;;3.87;1.40;;;20.40;57.70;;;;;;4871471;29;20839;-72
2022/06/01 11:48:12;;;;;;;6.30;1.50;;;20.60;57.50;;;;;;4888295;29;20454;-70
2022/06/01 11:50:56;;;;;;;4.80;1.30;;;20.60;57.20;;;;;;4889663;29;20465;-71
2022/06/01 11:53:34;;;;;;;4.20;1.63;;;20.70;57.30;;;;;;4890568;29;20825;-72
2022/06/01 11:56:24;;;;;;;5.07;1.80;;;20.80;57.20;;;;;;4880521;29;20877;-71
2022/06/01 11:59:16;;;;;;;4.80;1.60;;;20.80;57.10;;;;;;4892484;29;20502;-71
2022/06/01 12:01:53;;;;;;;4.70;1.90;;;20.80;57.00;;;;;;4880520;29;20524;-72
2022/06/01 12:04:25;;;;;;;6.17;2.00;;;20.70;57.00;;;;;;4885510;29;20517;-71
2022/06/01 12:07:05;;;;;;;4.57;1.70;;;20.70;57.00;;;;;;4865996;29;20455;-71
2022/06/01 12:09:42;;;;;;;5.93;2.10;;;20.70;56.70;;;;;;4883460;29;20478;-71
2022/06/01 12:12:26;;;;;;;3.50;1.20;;;20.60;56.60;;;;;;4884983;29;20457;-75
2022/06/01 12:15:00;;;;;;;4.43;1.33;;;20.70;56.30;;;;;;4886671;29;20507;-71
2022/06/01 12:17:34;;;;;;;3.87;1.40;;;20.80;56.70;;;;;;4875915;29;20492;-72
2022/06/01 12:20:47;;;;;;;4.83;1.40;;;20.80;56.60;;;;;;4885564;29;21080;-71
2022/06/01 12:30:13;;;;;;;4.00;1.60;;;20.80;54.30;;;;;;4868960;29;20878;-71
2022/06/01 12:33:21;;;;;;;5.40;1.60;;;20.90;55.30;;;;;;4883452;29;20453;-71
2022/06/01 12:35:53;;;;;;;4.70;1.87;;;20.90;55.30;;;;;;4887228;29;20495;-72
2022/06/01 12:38:31;;;;;;;3.80;1.50;;;21.00;55.60;;;;;;4881910;29;20486;-73
2022/06/01 12:41:10;;;;;;;4.33;1.43;;;21.00;55.30;;;;;;4854863;29;20834;-73
2022/06/01 12:43:40;;;;;;;3.97;1.23;;;21.00;55.30;;;;;;4886372;29;20522;-73
2022/06/01 12:46:21;;;;;;;6.50;1.60;;;21.00;55.10;;;;;;4885876;29;20489;-71
2022/06/01 12:48:49;;;;;;;7.93;1.70;;;21.00;54.90;;;;;;4882837;29;20983;-71
2022/06/01 12:51:18;;;;;;;4.00;1.60;;;21.00;54.80;;;;;;4876385;29;20459;-71
2022/06/01 12:53:48;;;;;;;4.90;1.63;;;21.10;54.90;;;;;;4885733;29;20454;-73
2022/06/01 12:56:20;;;;;;;6.03;1.50;;;21.10;54.60;;;;;;4883279;29;20491;-74
2022/06/01 12:58:53;;;;;;;5.40;1.60;;;21.00;54.30;;;;;;4875680;29;20489;-72
2022/06/01 13:01:29;;;;;;;7.50;2.07;;;21.00;54.70;;;;;;4886021;29;20489;-71
2022/06/01 13:04:00;;;;;;;4.43;1.80;;;21.00;54.70;;;;;;4892692;29;20470;-72
2022/06/01 13:06:30;;;;;;;4.97;1.63;;;21.00;54.70;;;;;;4887468;29;20466;-71
2022/06/01 13:09:00;;;;;;;6.77;1.80;;;21.00;54.70;;;;;;4885665;29;20471;-71
2022/06/01 13:11:30;;;;;;;9.00;1.50;;;21.00;54.80;;;;;;4885903;29;20829;-71
2022/06/01 13:14:01;;;;;;;4.57;1.50;;;21.20;54.70;;;;;;4887205;29;20897;-71
2022/06/01 13:16:38;;;;;;;5.40;2.00;;;21.20;54.90;;;;;;4890158;29;20488;-72
2022/06/01 13:19:18;;;;;;;4.00;1.60;;;21.30;54.80;;;;;;4879604;29;20486;-71
2022/06/01 13:21:50;;;;;;;4.80;1.70;;;21.40;54.70;;;;;;4893275;29;20556;-72
2022/06/01 13:24:20;;;;;;;4.70;2.10;;;21.40;54.60;;;;;;4890443;29;20469;-70
2022/06/01 13:26:51;;;;;;;5.17;2.33;;;21.40;54.40;;;;;;4871476;29;20470;-72
2022/06/01 13:29:23;;;;;;;4.87;1.60;;;21.40;54.40;;;;;;4891967;29;20478;-72
2022/06/01 13:31:55;;;;;;;4.40;1.97;;;21.40;54.40;;;;;;4888657;29;20478;-71
2022/06/01 13:34:31;;;;;;;4.77;1.90;;;21.50;54.40;;;;;;4891778;29;20485;-71
2022/06/01 13:37:07;;;;;;;4.47;1.80;;;21.50;54.50;;;;;;4887933;29;20457;-72
2022/06/01 13:39:41;;;;;;;6.03;1.67;;;21.60;54.20;;;;;;4886899;29;20489;-74
2022/06/01 13:42:09;;;;;;;5.37;1.80;;;21.70;54.20;;;;;;4872002;29;20461;-72
2022/06/01 13:44:50;;;;;;;4.17;1.60;;;21.80;54.00;;;;;;4885811;29;20502;-73
2022/06/01 13:47:24;;;;;;;4.10;1.73;;;21.90;53.90;;;;;;4878977;29;20487;-73
2022/06/01 13:49:59;;;;;;;10.77;7.27;;;21.90;53.80;;;;;;4878717;29;20465;-73
2022/06/01 13:52:28;;;;;;;6.50;2.60;;;21.90;53.70;;;;;;4876183;29;20465;-73